»·PEaware :: N196EC CL35-KSNA

N196EC :: CL35-KSNA

FLIGHT INFORMATION

Flight Status: Arrived
Operator: Privately registered:
United States
More flights under this callsign
Pilot: Adrián R. (20842)
Aircraft: BEECH AIRCRAFT DEBONAIR BONANZA
(BE33)
More flights by this aircraft type
Origin: CL35 Warner Springs
United States
Destination: KSNA John Wayne-Orange Co
United States
More flights between these airports :: More routes between these airports
Route: +JLI V208 OCN V23 SLI
File this flight plan on PilotEdge
Remarks:
Altitude:
(Current/Filed)
8,000ft
Speed:
(Current/Filed)
150kts
Departed: 23-Nov-18 08:32 AM
Arrived: 23-Nov-18 09:23 AM
Distance/Time
Traveled:
64nm/0:50
Distance/Time
To Go:
Arrived

Flight Plot

Page will automatically refresh every two minutes.

Flight plan parsing failed; only flown route is shown


Map Options




Map Legend


Flown Route
Filed Route
Departure Airport
Arrival Airport
Navaid (VOR, NDB)
Fix

Horizontal Profiles

Position Reports

Time Latitude Longitude Heading Altitude Ground
Speed
23-Nov-18 08:02 33.284216 -116.663816 359 2885ft 0kts
23-Nov-18 08:03 33.284216 -116.663816 359 2885ft 0kts
23-Nov-18 08:04 33.284216 -116.663816 359 2885ft 0kts
23-Nov-18 08:05 33.284216 -116.663816 359 2885ft 0kts
23-Nov-18 08:06 33.284216 -116.663816 359 2885ft 0kts
23-Nov-18 08:07 33.284216 -116.663816 359 2885ft 0kts
23-Nov-18 08:08 33.284216 -116.663816 359 2885ft 0kts
23-Nov-18 08:09 33.284216 -116.663816 359 2885ft 0kts
23-Nov-18 08:10 33.284216 -116.663816 359 2885ft 0kts
23-Nov-18 08:11 33.284216 -116.663816 359 2885ft 0kts
23-Nov-18 08:12 33.284216 -116.663816 359 2885ft 0kts
23-Nov-18 08:13 33.284216 -116.663816 359 2885ft 0kts
23-Nov-18 08:14 33.284216 -116.663816 359 2885ft 0kts
23-Nov-18 08:15 33.284216 -116.663816 359 2885ft 0kts
23-Nov-18 08:16 33.284216 -116.663816 359 2885ft 0kts
23-Nov-18 08:17 33.284216 -116.663816 359 2885ft 0kts
23-Nov-18 08:18 33.284216 -116.663816 359 2885ft 0kts
23-Nov-18 08:19 33.284216 -116.663816 359 2885ft 0kts
23-Nov-18 08:20 33.284216 -116.663816 359 2885ft 0kts
23-Nov-18 08:21 33.284216 -116.663816 359 2885ft 0kts
23-Nov-18 08:22 33.284216 -116.663816 359 2885ft 0kts
23-Nov-18 08:23 33.284216 -116.663816 359 2885ft 0kts
23-Nov-18 08:24 33.284216 -116.663816 359 2885ft 0kts
23-Nov-18 08:25 33.284216 -116.663816 359 2885ft 0kts
23-Nov-18 08:26 33.284216 -116.663816 359 2885ft 0kts
23-Nov-18 08:27 33.284216 -116.663816 358 2885ft 0kts
23-Nov-18 08:28 33.284216 -116.663816 358 2885ft 0kts
23-Nov-18 08:29 33.284216 -116.663816 359 2885ft 0kts
23-Nov-18 08:30 33.284216 -116.663816 359 2885ft 0kts
23-Nov-18 08:31 33.284216 -116.663816 359 2885ft 0kts
23-Nov-18 08:32 33.284216 -116.663816 359 2885ft 0kts
23-Nov-18 08:33 33.284319 -116.663875 328 2885ft 3kts
23-Nov-18 08:34 33.284666 -116.664185 267 2885ft 0kts
23-Nov-18 08:35 33.284170 -116.684504 265 3223ft 93kts
23-Nov-18 08:36 33.271523 -116.699022 132 4069ft 94kts
23-Nov-18 08:37 33.253907 -116.677404 140 4908ft 92kts
23-Nov-18 08:38 33.234183 -116.655767 140 5618ft 99kts
23-Nov-18 08:39 33.213708 -116.632821 140 6314ft 102kts
23-Nov-18 08:40 33.193415 -116.609417 140 7002ft 102kts
23-Nov-18 08:41 33.174201 -116.612513 245 7673ft 87kts
23-Nov-18 08:42 33.164088 -116.641300 246 8004ft 115kts
23-Nov-18 08:43 33.154324 -116.682521 267 7991ft 138kts
23-Nov-18 08:44 33.158154 -116.729087 274 7992ft 144kts
23-Nov-18 08:45 33.163957 -116.777110 275 7991ft 147kts
23-Nov-18 08:46 33.169807 -116.824996 275 7990ft 149kts
23-Nov-18 08:47 33.175741 -116.873731 275 7990ft 149kts
23-Nov-18 08:48 33.181696 -116.922643 274 7987ft 147kts
23-Nov-18 08:49 33.187293 -116.970853 282 7988ft 147kts
23-Nov-18 08:50 33.193335 -117.019296 281 7986ft 148kts
23-Nov-18 08:51 33.199145 -117.067603 281 7984ft 148kts
23-Nov-18 08:52 33.204972 -117.116293 281 7982ft 148kts
23-Nov-18 08:53 33.210779 -117.164996 281 7983ft 148kts
23-Nov-18 08:54 33.216551 -117.213550 281 7984ft 148kts
23-Nov-18 08:55 33.222306 -117.262267 281 7985ft 148kts
23-Nov-18 08:56 33.228017 -117.310821 281 7986ft 148kts
23-Nov-18 08:57 33.233813 -117.359949 281 7826ft 158kts
23-Nov-18 08:58 33.241924 -117.414798 300 6935ft 169kts
23-Nov-18 08:59 33.273608 -117.455628 316 6092ft 165kts
23-Nov-18 09:00 33.304526 -117.492180 316 5989ft 152kts
23-Nov-18 09:01 33.334425 -117.527037 316 5990ft 149kts
23-Nov-18 09:02 33.363607 -117.561091 316 5990ft 148kts
23-Nov-18 09:03 33.393102 -117.595546 316 5990ft 147kts
23-Nov-18 09:04 33.422437 -117.629847 316 5989ft 147kts
23-Nov-18 09:05 33.449341 -117.661340 316 5988ft 147kts
23-Nov-18 09:06 33.478706 -117.695740 316 5986ft 148kts
23-Nov-18 09:07 33.508151 -117.730307 316 5984ft 148kts
23-Nov-18 09:08 33.537292 -117.764555 316 6001ft 147kts
23-Nov-18 09:09 33.568012 -117.800591 316 5390ft 159kts
23-Nov-18 09:10 33.599408 -117.837577 316 4652ft 161kts
23-Nov-18 09:11 33.630726 -117.874496 315 4006ft 160kts
23-Nov-18 09:12 33.662155 -117.909076 337 3992ft 152kts
23-Nov-18 09:13 33.702084 -117.898330 19 3999ft 150kts
23-Nov-18 09:14 33.741118 -117.880774 19 3999ft 149kts
23-Nov-18 09:15 33.780142 -117.863150 20 3792ft 153kts
23-Nov-18 09:16 33.816979 -117.846980 19 3019ft 133kts
23-Nov-18 09:17 33.850418 -117.832919 19 2997ft 121kts
23-Nov-18 09:18 33.856416 -117.800250 109 3003ft 121kts
23-Nov-18 09:19 33.833908 -117.775363 179 3006ft 126kts
23-Nov-18 09:20 33.801450 -117.788847 207 2697ft 123kts
23-Nov-18 09:21 33.771625 -117.807877 207 2079ft 121kts
23-Nov-18 09:22 33.743783 -117.825610 207 1478ft 102kts
23-Nov-18 09:23 33.719763 -117.840843 207 934ft 95kts
23-Nov-18 09:24 33.697193 -117.855184 207 441ft 84kts
23-Nov-18 09:25 33.678864 -117.866782 206 59ft 60kts
23-Nov-18 09:26 33.669328 -117.871849 138 59ft 10kts
23-Nov-18 09:27 33.667059 -117.872393 211 59ft 8kts
23-Nov-18 09:28 33.666875 -117.872527 208 59ft 0kts
23-Nov-18 09:29 33.666875 -117.872527 208 59ft 0kts
23-Nov-18 09:30 33.666875 -117.872527 208 59ft 0kts
23-Nov-18 09:31 33.666875 -117.872527 208 59ft 0kts
23-Nov-18 09:32 33.666875 -117.872527 208 59ft 0kts
23-Nov-18 09:33 33.666875 -117.872527 208 59ft 0kts
23-Nov-18 09:34 33.666875 -117.872527 208 59ft 0kts
23-Nov-18 09:35 33.666875 -117.872527 208 59ft 0kts
23-Nov-18 09:36 33.666875 -117.872527 208 59ft 0kts
23-Nov-18 09:37 33.666875 -117.872527 208 59ft 0kts
23-Nov-18 09:38 33.666875 -117.872527 208 59ft 0kts
23-Nov-18 09:39 33.666875 -117.872527 208 59ft 0kts
23-Nov-18 09:40 33.666875 -117.872527 208 59ft 0kts

Navigation Log

Ident Type
Flight plan parsing failed, navigation log unavailable